Meadow Lake Airport
CYLJ : now visible

Airfield :











YOU CAN JOIN US ON...

 
LOGIN :

Register | Disclaimer

   EN    FR    IT 

 









Legend :    VFR   Marginal VFR   IFR   Intensive IFR   Very Intensive IFR
Visi :
Ceiling :
>= 8 km
>= 3000ft
5 to 8 km
1000 to 3000 ft
1500m to 5 km
500 to 1000 ft
800 to 1500m
200 to 500 ft
< 800m
< 200 ft
Symbols :   Thunderstorms  Fog  Heavy snow  Heavy precipitations  Wind > 20 kt






- Airport Elevation : 1576 ft
- IATA code : YLJ


CYLJ - Meadow Lake

CURRENT METAR :
  • 202100Z 02006KT 340V040 1 1/2SM FU VV014 28/18 A3018 RMK FU8 SLP224 DENSITY ALT 3200FT

EXPIRED METARs :
  • 202000Z VRB02KT 2SM FU VV014 27/18 A3018 RMK FU8 SLP223 DENSITY ALT 3100FT
  • 201900Z VRB02KT 2SM FU VV014 26/18 A3017 RMK FU8 SLP222 DENSITY ALT 3000FT
  • 201836Z 00000KT 2SM FU VV013 25/19 A3017 RMK FU8 SLP222 DENSITY ALT 2900FT
  • 201800Z VRB03KT 2SM FU VV020 25/19 A3018 RMK FU8 SLP224 DENSITY ALT 2800FT
  • 201700Z 32003KT 290V350 2SM FU VV018 23/19 A3018 RMK FU8 SLP223 DENSITY ALT 2600FT

TAF N/A
CZWG FIR / North America



MET'MAP, your aeronautical weather chart ! - Copyright ORBIFLY December 2007 - Disclaimer

ORBIFLY MET'MAP TEAM :

Programming & Development : Alexandra Zaïnal
Original concept : Baudouin d'Aumeries
Technical & hardware support : Manuel Goepfert
Assistance : Marc-Olivier Méhu




SOURCES & CREDITS :

   NOAA       Earth
Advisory